Time;durP1;ratioP1;P1;durP2;ratioP2;P2;SDS_P1;SDS_P2;PMS_P1;PMS_P2;Temp;Humidity;BMP_temperature;BMP_pressure;BME280_temperature;BME280_humidity;BME280_pressure;Samples;Min_cycle;Max_cycle;Signal;HPM_P1;HPM_P2
2023/09/28 00:02:52;;;;;;;3.90;2.10;;;20.50;79.70;;;;;;4995495;28;20049;-79
2023/09/28 00:05:19;;;;;;;5.15;2.10;;;20.50;79.60;;;;;;4994407;28;20042;-77
2023/09/28 00:07:47;;;;;;;3.70;1.50;;;20.50;79.50;;;;;;4977952;28;20041;-76
2023/09/28 00:10:15;;;;;;;4.15;1.67;;;20.50;79.50;;;;;;4995001;28;20034;-78
2023/09/28 00:12:51;;;;;;;8.30;2.13;;;20.50;79.40;;;;;;4995150;28;20027;-79
2023/09/28 00:15:17;;;;;;;5.00;2.08;;;20.50;79.40;;;;;;4995343;28;20035;-79
2023/09/28 00:17:47;;;;;;;3.88;1.90;;;20.50;79.40;;;;;;4995252;28;20041;-77
2023/09/28 00:20:18;;;;;;;4.28;1.80;;;20.50;79.50;;;;;;4977158;28;20038;-78
2023/09/28 00:22:49;;;;;;;6.05;1.88;;;20.40;79.40;;;;;;4995371;28;20157;-79
2023/09/28 00:25:16;;;;;;;4.75;1.98;;;20.50;79.50;;;;;;4995033;28;20034;-77
2023/09/28 00:27:47;;;;;;;6.00;2.50;;;20.40;79.50;;;;;;4994854;28;20453;-78
2023/09/28 00:30:20;;;;;;;4.57;1.98;;;20.40;79.60;;;;;;4977241;28;20397;-79
2023/09/28 00:32:46;;;;;;;5.15;2.20;;;20.40;79.70;;;;;;4995078;28;20512;-80
2023/09/28 00:35:13;;;;;;;4.78;2.50;;;20.30;79.70;;;;;;4976781;28;20030;-79
2023/09/28 00:37:40;;;;;;;4.50;2.28;;;20.30;80.00;;;;;;4995012;28;20042;-80
2023/09/28 00:40:16;;;;;;;4.97;2.20;;;20.20;80.00;;;;;;4995414;28;20030;-82
2023/09/28 00:42:49;;;;;;;6.70;2.35;;;20.20;80.10;;;;;;4976987;28;20118;-83
2023/09/28 00:45:16;;;;;;;6.20;2.80;;;20.20;80.40;;;;;;4994545;28;20057;-81
2023/09/28 00:47:42;;;;;;;5.30;2.50;;;20.10;80.60;;;;;;4977119;28;20042;-81
2023/09/28 00:50:16;;;;;;;4.53;2.28;;;20.00;80.70;;;;;;4994592;28;20034;-82
2023/09/28 00:52:46;;;;;;;6.85;3.20;;;20.00;80.90;;;;;;4996697;28;20046;-81
2023/09/28 00:55:15;;;;;;;5.20;2.55;;;20.00;81.10;;;;;;4977866;28;20548;-81
2023/09/28 00:57:45;;;;;;;4.72;2.28;;;19.90;81.20;;;;;;4977245;28;20046;-78
2023/09/28 01:02:51;;;;;;;4.43;2.17;;;19.80;81.40;;;;;;4993902;28;20040;-77
2023/09/28 01:05:34;;;;;;;5.75;2.65;;;19.80;81.60;;;;;;4993962;28;20397;-77
2023/09/28 01:08:14;;;;;;;4.67;2.30;;;19.80;81.70;;;;;;4994100;28;20026;-78
2023/09/28 01:10:41;;;;;;;4.43;2.30;;;19.70;81.90;;;;;;4994093;28;20764;-77
2023/09/28 01:13:12;;;;;;;5.18;2.40;;;19.70;82.00;;;;;;4994140;28;20363;-77
2023/09/28 01:15:41;;;;;;;4.55;2.30;;;19.60;82.20;;;;;;4994195;28;20485;-77
2023/09/28 01:18:12;;;;;;;4.40;2.35;;;19.60;82.30;;;;;;4976109;28;20069;-78
2023/09/28 01:20:38;;;;;;;7.60;2.70;;;19.50;82.50;;;;;;4994534;28;20061;-78
2023/09/28 01:23:04;;;;;;;6.15;2.90;;;19.50;82.70;;;;;;4994138;28;20034;-78
2023/09/28 01:25:31;;;;;;;5.35;2.70;;;19.50;82.80;;;;;;4994096;28;20038;-77
2023/09/28 01:27:57;;;;;;;6.95;2.45;;;19.40;82.80;;;;;;4993905;28;20497;-77
2023/09/28 01:30:23;;;;;;;5.93;2.63;;;19.40;82.90;;;;;;4994140;28;20118;-77
2023/09/28 01:32:49;;;;;;;4.97;2.60;;;19.40;83.20;;;;;;4993510;28;20030;-77
2023/09/28 01:35:16;;;;;;;4.35;2.47;;;19.40;83.30;;;;;;4993852;28;20045;-77
2023/09/28 01:38:02;;;;;;;8.18;2.83;;;19.30;83.40;;;;;;4994266;28;20069;-77
2023/09/28 01:40:28;;;;;;;3.63;1.88;;;19.20;83.50;;;;;;4993769;28;20077;-76
2023/09/28 01:42:54;;;;;;;4.53;2.53;;;19.30;83.60;;;;;;4993646;28;20070;-77
2023/09/28 01:45:19;;;;;;;4.47;2.15;;;19.20;83.70;;;;;;4993757;28;20085;-78
2023/09/28 01:47:45;;;;;;;6.45;2.70;;;19.20;83.90;;;;;;4993524;28;20077;-78
2023/09/28 01:50:11;;;;;;;5.97;2.17;;;19.10;84.00;;;;;;4993354;28;20397;-78
2023/09/28 01:52:36;;;;;;;5.05;2.60;;;19.20;84.80;;;;;;4993837;28;20070;-78
2023/09/28 01:55:02;;;;;;;4.40;2.58;;;19.10;84.20;;;;;;4993664;28;20042;-81
2023/09/28 01:57:28;;;;;;;4.50;2.70;;;19.10;84.50;;;;;;4993470;28;20042;-77
2023/09/28 01:59:53;;;;;;;8.30;2.78;;;19.10;84.50;;;;;;4993556;28;20038;-78
2023/09/28 02:02:21;;;;;;;5.40;2.45;;;19.00;84.90;;;;;;4976172;28;20509;-77
2023/09/28 02:04:47;;;;;;;7.63;2.40;;;19.00;85.00;;;;;;4994046;28;20066;-77
2023/09/28 02:07:13;;;;;;;5.00;2.22;;;19.00;85.10;;;;;;4996675;28;20061;-77
2023/09/28 02:09:39;;;;;;;3.55;2.00;;;18.90;85.20;;;;;;4995724;28;20471;-77
2023/09/28 02:12:06;;;;;;;4.85;2.40;;;18.90;85.40;;;;;;4995224;28;20058;-77
2023/09/28 02:14:32;;;;;;;4.85;2.15;;;18.90;85.60;;;;;;4993355;28;20397;-77
2023/09/28 02:16:58;;;;;;;4.57;2.50;;;18.90;85.70;;;;;;4993397;28;20065;-78
2023/09/28 02:19:24;;;;;;;5.30;2.25;;;18.80;85.80;;;;;;4993674;28;20058;-76
2023/09/28 02:21:51;;;;;;;5.55;2.63;;;18.80;86.10;;;;;;4996051;28;20133;-78
2023/09/28 02:24:17;;;;;;;3.80;2.13;;;18.70;86.10;;;;;;4997031;28;20062;-78
2023/09/28 02:26:44;;;;;;;6.05;2.55;;;18.80;86.30;;;;;;4997278;28;20049;-77
2023/09/28 02:29:11;;;;;;;6.28;2.70;;;18.80;86.60;;;;;;4996878;28;20097;-77
2023/09/28 02:31:41;;;;;;;7.90;2.95;;;18.70;86.80;;;;;;4997161;28;20114;-78
2023/09/28 02:34:07;;;;;;;9.25;3.20;;;18.70;87.30;;;;;;4997134;28;20042;-79
2023/09/28 02:36:33;;;;;;;5.75;2.53;;;18.60;87.20;;;;;;4996910;28;20031;-77
2023/09/28 02:38:59;;;;;;;7.47;3.05;;;18.60;87.20;;;;;;4997106;28;20035;-78
2023/09/28 02:41:25;;;;;;;6.65;3.10;;;18.70;87.70;;;;;;4979551;28;20034;-78
2023/09/28 02:43:51;;;;;;;8.90;2.75;;;18.60;88.00;;;;;;4996468;28;20058;-77
2023/09/28 02:46:17;;;;;;;7.05;3.03;;;18.60;88.00;;;;;;4996744;28;20101;-77
2023/09/28 02:48:43;;;;;;;5.10;2.55;;;18.60;88.00;;;;;;4996563;28;20090;-79
2023/09/28 02:51:10;;;;;;;6.35;2.83;;;18.60;88.20;;;;;;4996850;28;20389;-77
2023/09/28 02:53:36;;;;;;;5.32;2.33;;;18.60;88.50;;;;;;4996643;28;20038;-79
2023/09/28 02:56:03;;;;;;;6.22;2.53;;;18.60;88.40;;;;;;4997078;28;20382;-76
2023/09/28 02:58:29;;;;;;;7.75;2.80;;;18.60;88.60;;;;;;4996420;28;20046;-77
2023/09/28 03:00:56;;;;;;;4.82;2.67;;;18.50;88.70;;;;;;4979133;28;20100;-77
2023/09/28 03:03:23;;;;;;;4.90;2.40;;;18.60;88.80;;;;;;4996521;28;20093;-78
2023/09/28 03:05:51;;;;;;;5.38;2.60;;;18.50;88.70;;;;;;4978741;28;20030;-77
2023/09/28 03:08:17;;;;;;;7.68;2.97;;;18.50;88.90;;;;;;4996368;28;20442;-78
2023/09/28 03:10:44;;;;;;;4.65;2.55;;;18.50;89.00;;;;;;4996786;28;20069;-80
2023/09/28 03:13:11;;;;;;;5.72;3.00;;;18.50;88.90;;;;;;4979412;28;20121;-81
2023/09/28 03:15:39;;;;;;;8.13;3.15;;;18.50;89.00;;;;;;4996085;28;20097;-81
2023/09/28 03:18:05;;;;;;;5.03;2.00;;;18.50;89.20;;;;;;4973558;28;20106;-81
2023/09/28 03:20:31;;;;;;;4.97;2.33;;;18.40;89.20;;;;;;4975459;28;20125;-81
2023/09/28 03:22:56;;;;;;;5.13;2.53;;;18.40;89.50;;;;;;4976385;28;20402;-81
2023/09/28 03:25:22;;;;;;;5.63;2.30;;;18.40;90.00;;;;;;4976614;28;20130;-81
2023/09/28 03:27:55;;;;;;;4.82;2.53;;;18.30;89.60;;;;;;4976448;28;20027;-81
2023/09/28 03:30:23;;;;;;;5.85;2.35;;;18.40;89.80;;;;;;4975674;28;20035;-81
2023/09/28 03:32:49;;;;;;;5.93;2.22;;;18.30;89.70;;;;;;4976643;28;20031;-81
2023/09/28 03:35:16;;;;;;;5.93;2.47;;;18.30;89.90;;;;;;4976442;28;20122;-81
2023/09/28 03:37:43;;;;;;;8.05;2.58;;;18.30;90.00;;;;;;4976184;28;20030;-81
2023/09/28 03:40:10;;;;;;;4.65;2.30;;;18.20;90.00;;;;;;4976603;28;20031;-82
2023/09/28 03:42:44;;;;;;;6.60;2.85;;;18.20;90.10;;;;;;4976338;28;20049;-82
2023/09/28 03:45:15;;;;;;;7.13;2.50;;;18.20;90.20;;;;;;4976395;28;20038;-82
2023/09/28 03:47:42;;;;;;;5.90;2.88;;;18.20;90.20;;;;;;4976508;28;20042;-82
2023/09/28 03:50:10;;;;;;;7.25;2.88;;;18.20;90.20;;;;;;4974843;28;20070;-82
2023/09/28 03:52:39;;;;;;;5.22;2.97;;;18.20;90.40;;;;;;4976252;28;20047;-78
2023/09/28 03:55:09;;;;;;;7.50;2.88;;;18.10;90.50;;;;;;4982879;28;20546;-78
2023/09/28 03:57:34;;;;;;;5.50;2.78;;;18.10;90.50;;;;;;4978993;28;20037;-78
2023/09/28 04:00:00;;;;;;;7.13;2.75;;;18.10;90.50;;;;;;4979463;28;20113;-78
2023/09/28 04:02:27;;;;;;;6.28;2.88;;;18.10;90.60;;;;;;4974683;28;20030;-79
2023/09/28 04:04:53;;;;;;;5.00;2.40;;;18.10;90.70;;;;;;4974603;28;20478;-78
2023/09/28 04:07:19;;;;;;;7.97;3.28;;;18.00;90.70;;;;;;4984450;28;20073;-78
2023/09/28 04:09:44;;;;;;;10.27;3.20;;;18.00;90.80;;;;;;4976069;28;20478;-78
2023/09/28 04:12:12;;;;;;;6.75;3.05;;;18.00;90.90;;;;;;4974166;28;20034;-79
2023/09/28 04:14:37;;;;;;;5.80;3.10;;;18.00;91.00;;;;;;4958283;28;20035;-79
2023/09/28 04:17:03;;;;;;;5.05;2.42;;;18.00;91.10;;;;;;4977848;28;20478;-78
2023/09/28 04:19:30;;;;;;;7.38;2.78;;;18.00;91.20;;;;;;4984145;28;20551;-78
2023/09/28 04:21:55;;;;;;;6.90;3.05;;;17.90;91.20;;;;;;4958267;28;20026;-79
2023/09/28 04:24:21;;;;;;;6.32;2.53;;;17.90;91.20;;;;;;4974322;28;20046;-79
2023/09/28 04:26:47;;;;;;;10.15;3.78;;;17.90;91.30;;;;;;4957507;28;20042;-79
2023/09/28 04:29:13;;;;;;;6.55;3.40;;;17.90;91.50;;;;;;4975567;28;20081;-78
2023/09/28 04:31:40;;;;;;;6.75;2.92;;;17.90;91.50;;;;;;4975541;28;20038;-79
2023/09/28 04:34:07;;;;;;;7.80;3.55;;;17.80;91.50;;;;;;4974230;28;20031;-80
2023/09/28 04:36:33;;;;;;;6.82;3.25;;;17.80;91.50;;;;;;4975512;28;20059;-79
2023/09/28 04:38:59;;;;;;;6.10;2.45;;;17.80;91.60;;;;;;4975342;28;20038;-80
2023/09/28 04:41:24;;;;;;;5.78;2.92;;;17.80;91.70;;;;;;4974492;28;20395;-79
2023/09/28 04:43:50;;;;;;;6.70;3.47;;;17.70;91.80;;;;;;4985352;28;20043;-81
2023/09/28 04:46:15;;;;;;;6.90;3.47;;;17.70;91.80;;;;;;4958278;28;20035;-81
2023/09/28 04:48:41;;;;;;;6.75;3.53;;;17.70;92.00;;;;;;4975530;28;20113;-81
2023/09/28 04:51:07;;;;;;;8.32;3.38;;;17.70;91.90;;;;;;4975099;28;20073;-81
2023/09/28 04:53:32;;;;;;;8.57;4.03;;;17.70;92.00;;;;;;4974677;28;20051;-81
2023/09/28 04:55:58;;;;;;;6.57;3.75;;;17.70;92.10;;;;;;4974735;28;20130;-81
2023/09/28 04:58:23;;;;;;;7.13;2.97;;;17.60;92.20;;;;;;4974859;28;20486;-80
2023/09/28 05:00:49;;;;;;;5.45;3.00;;;17.60;92.20;;;;;;4975023;28;20031;-81
2023/09/28 05:03:15;;;;;;;6.28;3.13;;;17.60;92.20;;;;;;4974978;28;20066;-80
2023/09/28 05:05:40;;;;;;;10.50;3.90;;;17.60;92.30;;;;;;4975162;28;20475;-81
2023/09/28 05:08:06;;;;;;;7.28;3.67;;;17.60;92.50;;;;;;4988733;28;20047;-81
2023/09/28 05:10:32;;;;;;;6.78;4.00;;;17.50;92.40;;;;;;4970699;28;20081;-81
2023/09/28 05:12:58;;;;;;;6.65;3.63;;;17.50;92.80;;;;;;4996440;28;20038;-81
2023/09/28 05:15:24;;;;;;;8.75;4.28;;;17.50;92.60;;;;;;4997765;28;20034;-81
2023/09/28 05:17:50;;;;;;;8.45;4.07;;;17.50;92.70;;;;;;4993705;28;20037;-80
2023/09/28 05:20:15;;;;;;;8.77;4.43;;;17.50;92.70;;;;;;4999281;28;20364;-81
2023/09/28 05:22:43;;;;;;;6.30;3.83;;;17.50;92.80;;;;;;4970408;28;20030;-81
2023/09/28 05:25:09;;;;;;;6.57;3.38;;;17.50;92.80;;;;;;4987046;28;20085;-82
2023/09/28 05:27:34;;;;;;;7.85;4.10;;;17.50;92.90;;;;;;4967500;28;20030;-81
2023/09/28 05:30:00;;;;;;;6.10;3.40;;;17.40;92.90;;;;;;4989925;28;20099;-81
2023/09/28 05:32:26;;;;;;;6.55;3.63;;;17.40;92.90;;;;;;4990516;28;20494;-81
2023/09/28 05:34:52;;;;;;;7.63;3.55;;;17.40;93.00;;;;;;4975353;28;20114;-81
2023/09/28 05:37:17;;;;;;;6.55;3.90;;;17.30;93.20;;;;;;4973850;28;20053;-81
2023/09/28 05:39:43;;;;;;;8.93;4.13;;;17.30;93.20;;;;;;4984599;28;20034;-80
2023/09/28 05:42:09;;;;;;;8.27;4.10;;;17.30;93.40;;;;;;4971027;28;20066;-82
2023/09/28 05:44:34;;;;;;;6.82;3.85;;;17.30;93.50;;;;;;4981910;28;20425;-77
2023/09/28 05:47:00;;;;;;;10.68;4.80;;;17.20;93.70;;;;;;4983645;28;20573;-77
2023/09/28 05:49:26;;;;;;;7.22;4.10;;;17.20;93.70;;;;;;4982096;28;20058;-77
2023/09/28 05:51:53;;;;;;;16.23;4.65;;;17.20;93.80;;;;;;4961327;28;20035;-77
2023/09/28 05:54:18;;;;;;;7.55;4.32;;;17.10;93.80;;;;;;4973709;28;20180;-77
2023/09/28 05:56:44;;;;;;;6.55;3.80;;;17.10;93.90;;;;;;4977195;28;20115;-77
2023/09/28 05:59:10;;;;;;;9.80;4.60;;;17.10;94.00;;;;;;4978565;28;20501;-77
2023/09/28 06:01:37;;;;;;;8.05;3.50;;;17.10;94.00;;;;;;4960336;28;20061;-77
2023/09/28 06:04:04;;;;;;;9.85;4.28;;;17.10;94.00;;;;;;4978412;28;20047;-77
2023/09/28 06:06:30;;;;;;;8.43;4.57;;;17.10;94.10;;;;;;4979383;28;20034;-79
2023/09/28 06:08:55;;;;;;;8.95;4.07;;;17.10;94.10;;;;;;4997901;28;20590;-81
2023/09/28 06:11:21;;;;;;;10.50;4.30;;;17.00;94.10;;;;;;4999859;28;20035;-81
2023/09/28 06:13:47;;;;;;;6.15;3.25;;;17.00;94.20;;;;;;4982063;28;20084;-80
2023/09/28 06:16:14;;;;;;;10.65;4.07;;;17.00;94.40;;;;;;4999774;28;20038;-80
2023/09/28 06:18:42;;;;;;;8.77;4.38;;;17.00;94.50;;;;;;4981536;28;20038;-81
2023/09/28 06:21:08;;;;;;;8.18;4.30;;;17.00;94.60;;;;;;4997578;28;20041;-81
2023/09/28 06:23:35;;;;;;;8.77;4.55;;;17.00;94.80;;;;;;4997610;28;20038;-80
2023/09/28 06:26:29;;;;;;;10.18;4.45;;;17.00;94.90;;;;;;4993069;28;20533;-81
2023/09/28 06:28:56;;;;;;;7.25;3.72;;;17.00;95.00;;;;;;4950961;29;20502;-81
2023/09/28 06:31:23;;;;;;;10.10;3.70;;;17.00;95.20;;;;;;4955427;29;20027;-81
2023/09/28 06:33:51;;;;;;;10.23;3.75;;;17.00;95.20;;;;;;4958514;29;20075;-81
2023/09/28 06:36:18;;;;;;;14.85;3.78;;;17.10;95.40;;;;;;4941424;29;20043;-80
2023/09/28 06:38:56;;;;;;;8.93;3.35;;;17.10;95.50;;;;;;4958560;29;20099;-81
2023/09/28 06:41:37;;;;;;;9.70;3.72;;;17.10;95.50;;;;;;4942060;29;20102;-81
2023/09/28 06:44:24;;;;;;;8.75;3.47;;;17.10;95.60;;;;;;4941332;29;20069;-79
2023/09/28 06:47:00;;;;;;;10.27;3.08;;;17.10;95.70;;;;;;4869278;29;20124;-79
2023/09/28 06:49:58;;;;;;;6.25;2.63;;;17.10;95.80;;;;;;4882775;29;20048;-79
2023/09/28 06:53:16;;;;;;;9.07;3.42;;;17.10;95.90;;;;;;4860481;29;20053;-79
2023/09/28 06:56:26;;;;;;;11.23;3.35;;;17.20;95.80;;;;;;4844586;29;20110;-80
2023/09/28 06:58:55;;;;;;;8.93;2.40;;;17.20;95.80;;;;;;4861327;29;20061;-79
2023/09/28 07:01:26;;;;;;;11.88;2.88;;;17.20;95.80;;;;;;4853208;29;20044;-82
2023/09/28 07:03:52;;;;;;;11.02;2.65;;;17.30;95.80;;;;;;4863271;29;20041;-82
2023/09/28 07:06:21;;;;;;;12.20;3.30;;;17.30;95.80;;;;;;4848249;29;20133;-81
2023/09/28 07:08:47;;;;;;;14.77;2.67;;;17.40;95.80;;;;;;4864187;29;20052;-84
2023/09/28 07:11:14;;;;;;;12.10;2.80;;;17.40;95.70;;;;;;4864614;29;20046;-85
2023/09/28 07:13:40;;;;;;;10.55;2.53;;;17.50;95.70;;;;;;4865209;29;20047;-81
2023/09/28 07:16:07;;;;;;;13.48;2.83;;;17.50;95.60;;;;;;4848119;29;20124;-84
2023/09/28 07:18:33;;;;;;;11.07;2.45;;;17.50;95.50;;;;;;4862121;29;20068;-82
2023/09/28 07:20:59;;;;;;;11.43;2.03;;;17.50;95.50;;;;;;4861016;29;20069;-82
2023/09/28 07:23:25;;;;;;;14.63;2.58;;;17.60;95.40;;;;;;4874591;29;20037;-82
2023/09/28 07:25:51;;;;;;;17.83;2.78;;;17.60;95.40;;;;;;4920184;29;20039;-82
2023/09/28 07:28:17;;;;;;;8.32;2.33;;;17.60;95.30;;;;;;4935946;29;20078;-81
2023/09/28 07:30:42;;;;;;;12.98;2.47;;;17.70;95.20;;;;;;4966134;28;20042;-82
2023/09/28 07:33:08;;;;;;;17.65;2.35;;;17.70;95.10;;;;;;4995976;28;20045;-81
2023/09/28 07:35:33;;;;;;;11.43;2.13;;;17.80;95.10;;;;;;4978160;28;20041;-82
2023/09/28 07:37:59;;;;;;;15.63;2.85;;;17.80;94.90;;;;;;4978609;28;20037;-78
2023/09/28 07:40:26;;;;;;;14.13;2.90;;;17.80;94.70;;;;;;4996184;28;20364;-78
2023/09/28 07:42:52;;;;;;;11.77;2.55;;;17.80;94.50;;;;;;4995748;28;20031;-78
2023/09/28 07:45:20;;;;;;;17.73;3.35;;;17.80;94.50;;;;;;4995651;28;20038;-79
2023/09/28 07:47:46;;;;;;;12.45;2.72;;;17.80;94.40;;;;;;4995613;28;20042;-78
2023/09/28 07:50:14;;;;;;;20.98;2.80;;;17.90;94.30;;;;;;4995087;28;20039;-79
2023/09/28 07:52:40;;;;;;;12.90;2.90;;;17.90;94.20;;;;;;4995893;28;20027;-79
2023/09/28 07:55:07;;;;;;;17.15;2.75;;;17.90;94.20;;;;;;4995103;28;20120;-78
2023/09/28 07:57:33;;;;;;;12.40;2.05;;;18.00;94.10;;;;;;4978037;28;20038;-78
2023/09/28 07:59:59;;;;;;;18.88;2.80;;;18.00;94.00;;;;;;4996240;28;20036;-81
2023/09/28 08:02:25;;;;;;;15.13;2.90;;;18.10;94.00;;;;;;4996272;28;20042;-80
2023/09/28 08:04:53;;;;;;;12.10;2.33;;;18.10;93.90;;;;;;4996238;28;20042;-81
2023/09/28 08:07:19;;;;;;;15.98;2.65;;;18.20;93.80;;;;;;4995277;28;20022;-81
2023/09/28 08:09:45;;;;;;;13.63;2.88;;;18.20;93.70;;;;;;4995771;28;20121;-80
2023/09/28 08:12:10;;;;;;;13.63;2.55;;;18.30;93.60;;;;;;4995857;28;20462;-81
2023/09/28 08:14:36;;;;;;;14.25;2.95;;;18.30;93.50;;;;;;4996196;28;20117;-81
2023/09/28 08:17:02;;;;;;;14.30;2.75;;;18.40;93.30;;;;;;4994994;28;20034;-83
2023/09/28 08:19:29;;;;;;;16.67;2.72;;;18.40;93.30;;;;;;4977847;28;20033;-83
2023/09/28 08:21:55;;;;;;;18.23;3.10;;;18.40;93.10;;;;;;4978664;28;20114;-84
2023/09/28 08:24:20;;;;;;;15.52;2.58;;;18.50;93.00;;;;;;4995372;28;20113;-83
2023/09/28 08:26:46;;;;;;;12.65;2.88;;;18.50;93.00;;;;;;4995173;28;20030;-85
2023/09/28 08:29:12;;;;;;;13.90;2.70;;;18.60;92.90;;;;;;4979971;28;20041;-81
2023/09/28 08:31:38;;;;;;;13.70;2.78;;;18.60;92.70;;;;;;4995879;28;20038;-84
2023/09/28 08:34:05;;;;;;;14.30;2.50;;;18.70;92.60;;;;;;4976432;28;20198;-81
2023/09/28 08:36:32;;;;;;;17.73;3.50;;;18.70;92.40;;;;;;4968500;28;20114;-85
2023/09/28 08:39:15;;;;;;;12.45;2.67;;;18.80;92.20;;;;;;4975281;28;20031;-81
2023/09/28 08:42:14;;;;;;;16.77;3.47;;;18.80;92.10;;;;;;4974185;28;20125;-80
2023/09/28 08:44:40;;;;;;;16.52;2.83;;;18.90;92.00;;;;;;4918790;29;20476;-80
2023/09/28 08:47:45;;;;;;;18.08;2.85;;;18.90;91.90;;;;;;4918574;29;20036;-81
2023/09/28 08:50:15;;;;;;;18.70;2.45;;;19.00;91.80;;;;;;4899286;29;20119;-79
2023/09/28 08:52:41;;;;;;;15.35;2.42;;;19.10;91.60;;;;;;4913764;29;20032;-81
2023/09/28 08:55:43;;;;;;;17.95;2.85;;;19.20;91.30;;;;;;4915635;29;20099;-81
2023/09/28 08:58:12;;;;;;;11.13;2.70;;;19.30;91.20;;;;;;4915436;29;20525;-81
2023/09/28 09:00:39;;;;;;;16.83;3.30;;;19.30;91.00;;;;;;4915475;29;20036;-81
2023/09/28 09:03:15;;;;;;;14.95;2.78;;;19.40;90.70;;;;;;4915063;29;20072;-79
2023/09/28 09:05:41;;;;;;;13.70;2.47;;;19.40;90.50;;;;;;4915516;29;20040;-78
2023/09/28 09:08:10;;;;;;;15.82;2.60;;;19.50;90.20;;;;;;4915317;29;20063;-80
2023/09/28 09:10:41;;;;;;;9.98;2.20;;;19.50;90.00;;;;;;4914993;29;20040;-79
2023/09/28 09:13:20;;;;;;;15.25;2.40;;;19.60;89.70;;;;;;4914831;29;20055;-80
2023/09/28 09:15:47;;;;;;;14.10;2.38;;;19.70;89.30;;;;;;4927053;29;20506;-78
2023/09/28 09:18:19;;;;;;;18.83;2.60;;;19.70;89.00;;;;;;4934148;29;20283;-77
2023/09/28 09:20:49;;;;;;;11.25;2.30;;;19.70;88.10;;;;;;4948668;28;20063;-78
2023/09/28 09:23:16;;;;;;;13.98;2.15;;;19.80;88.10;;;;;;4957425;28;20034;-78
2023/09/28 09:25:44;;;;;;;15.80;2.97;;;19.80;87.80;;;;;;4973193;28;20093;-79
2023/09/28 09:28:12;;;;;;;13.23;2.85;;;19.90;87.60;;;;;;4975822;28;20110;-78
2023/09/28 09:30:37;;;;;;;16.77;3.45;;;19.90;87.30;;;;;;4958983;28;20055;-79
2023/09/28 09:33:20;;;;;;;14.15;3.10;;;19.90;87.00;;;;;;4974550;28;20055;-80
2023/09/28 09:36:18;;;;;;;12.05;2.08;;;19.90;86.70;;;;;;4957115;28;20046;-78
2023/09/28 09:38:50;;;;;;;13.73;2.40;;;20.00;86.40;;;;;;4934046;29;20451;-79
2023/09/28 09:41:16;;;;;;;11.25;1.88;;;20.10;86.40;;;;;;4934054;29;20046;-81
2023/09/28 09:43:46;;;;;;;12.35;2.42;;;20.20;86.20;;;;;;4932876;29;20040;-79
2023/09/28 09:46:12;;;;;;;13.68;3.00;;;20.30;85.60;;;;;;4917844;29;20047;-79
2023/09/28 09:48:41;;;;;;;10.63;1.50;;;20.30;85.00;;;;;;4933154;29;20400;-79
2023/09/28 09:51:13;;;;;;;18.13;2.67;;;20.40;84.60;;;;;;4933780;29;20423;-78
2023/09/28 09:53:43;;;;;;;15.68;2.92;;;20.40;84.00;;;;;;4918077;29;20043;-81
2023/09/28 09:56:10;;;;;;;14.10;2.60;;;20.50;83.70;;;;;;4933522;29;20146;-79
2023/09/28 09:58:49;;;;;;;16.30;3.47;;;20.50;83.50;;;;;;4933380;29;20051;-79
2023/09/28 10:01:19;;;;;;;13.77;2.65;;;20.50;83.10;;;;;;4933531;29;20044;-80
2023/09/28 10:03:52;;;;;;;12.85;2.25;;;20.60;82.70;;;;;;4933684;29;20042;-79
2023/09/28 10:06:22;;;;;;;14.80;2.67;;;20.70;82.20;;;;;;4917514;29;20046;-78
2023/09/28 10:08:49;;;;;;;16.85;3.15;;;20.80;81.90;;;;;;4933710;29;20036;-80
2023/09/28 10:11:16;;;;;;;11.60;2.28;;;21.00;81.70;;;;;;4933421;29;20067;-79
2023/09/28 10:13:43;;;;;;;15.68;2.83;;;21.10;81.40;;;;;;4934699;29;20051;-81
2023/09/28 10:16:15;;;;;;;13.82;2.75;;;21.20;81.20;;;;;;4919953;29;20439;-84
2023/09/28 10:18:45;;;;;;;16.83;3.28;;;21.30;80.90;;;;;;4918928;29;20036;-83
2023/09/28 10:21:11;;;;;;;12.50;2.92;;;21.40;80.30;;;;;;4918727;28;20032;-83
2023/09/28 10:23:37;;;;;;;16.58;2.58;;;21.50;80.10;;;;;;4977324;28;20530;-85
2023/09/28 10:26:12;;;;;;;10.70;1.67;;;21.60;79.80;;;;;;4957916;28;20034;-83
2023/09/28 10:29:07;;;;;;;8.30;1.77;;;21.70;79.40;;;;;;4957995;28;20031;-84
2023/09/28 10:31:56;;;;;;;11.93;3.08;;;21.70;79.00;;;;;;4974056;28;20031;-80
2023/09/28 10:35:14;;;;;;;17.33;2.92;;;21.80;78.60;;;;;;4973927;28;20062;-79
2023/09/28 10:37:39;;;;;;;11.05;2.45;;;21.90;78.30;;;;;;4973767;28;20034;-79
2023/09/28 10:40:06;;;;;;;14.07;2.20;;;22.00;78.20;;;;;;4973699;28;20110;-81
2023/09/28 10:42:34;;;;;;;10.45;2.40;;;22.10;77.90;;;;;;4975648;28;20041;-82
2023/09/28 10:45:19;;;;;;;8.45;1.90;;;22.20;77.50;;;;;;4977674;28;20430;-79
2023/09/28 10:47:45;;;;;;;13.35;1.73;;;22.30;77.00;;;;;;4920698;29;20043;-79
2023/09/28 10:50:15;;;;;;;13.00;2.55;;;22.30;76.70;;;;;;4937852;29;20035;-81
2023/09/28 10:52:42;;;;;;;12.63;2.00;;;22.30;76.20;;;;;;4937286;29;20035;-82
2023/09/28 10:55:09;;;;;;;13.02;2.60;;;22.30;75.80;;;;;;4938658;29;20047;-83
2023/09/28 10:57:35;;;;;;;12.88;1.92;;;22.40;75.60;;;;;;4937340;29;20420;-85
2023/09/28 11:00:04;;;;;;;9.48;2.20;;;22.50;75.40;;;;;;4922030;29;20062;-86
2023/09/28 11:02:36;;;;;;;14.93;2.58;;;22.60;74.90;;;;;;4936900;29;20496;-85
2023/09/28 11:05:07;;;;;;;11.45;1.85;;;22.60;74.40;;;;;;4920969;29;20047;-84
2023/09/28 11:07:33;;;;;;;13.80;2.67;;;22.70;74.20;;;;;;4938181;29;20472;-82
2023/09/28 11:10:02;;;;;;;10.85;2.22;;;22.80;73.70;;;;;;4937824;29;20032;-79
2023/09/28 11:12:49;;;;;;;9.40;1.80;;;22.80;73.60;;;;;;4936099;29;20035;-79
2023/09/28 11:15:19;;;;;;;14.38;2.50;;;22.80;73.30;;;;;;4904710;29;20047;-80
2023/09/28 11:18:07;;;;;;;8.15;1.77;;;23.00;73.30;;;;;;4937756;28;20047;-81
2023/09/28 11:23:55;;;;;;;13.75;2.40;;;23.30;72.40;;;;;;4955495;28;20038;-80
2023/09/28 11:26:22;;;;;;;10.82;2.00;;;23.40;72.40;;;;;;4954610;29;20043;-82
2023/09/28 11:28:50;;;;;;;13.48;2.13;;;23.50;71.90;;;;;;4955407;29;20027;-79
2023/09/28 11:31:18;;;;;;;14.30;2.55;;;23.50;71.50;;;;;;4942455;29;20035;-79
2023/09/28 11:33:45;;;;;;;11.32;1.83;;;23.60;71.00;;;;;;4958377;28;20098;-79
2023/09/28 11:36:34;;;;;;;11.48;2.33;;;23.70;70.80;;;;;;4956447;29;20149;-79
2023/09/28 11:39:50;;;;;;;;;;;23.50;69.90;;;;;;4898491;29;20037;-80
2023/09/28 11:42:37;;;;;;;8.60;1.60;;;23.50;70.30;;;;;;4898159;29;20296;-80
2023/09/28 11:45:05;;;;;;;15.63;2.40;;;23.40;70.50;;;;;;4898379;29;20485;-79
2023/09/28 11:47:30;;;;;;;10.80;2.40;;;23.40;70.50;;;;;;4898143;29;20071;-82
2023/09/28 11:49:56;;;;;;;11.02;1.73;;;23.40;70.30;;;;;;4898806;29;20071;-82
2023/09/28 11:52:22;;;;;;;12.93;2.30;;;23.40;70.20;;;;;;4883387;29;20071;-84
2023/09/28 11:54:49;;;;;;;12.95;2.50;;;23.40;69.70;;;;;;4882072;29;20123;-82
2023/09/28 11:57:16;;;;;;;12.13;2.20;;;23.40;69.80;;;;;;4883640;29;20056;-85
2023/09/28 11:59:42;;;;;;;13.43;2.50;;;23.40;69.50;;;;;;4885703;29;20045;-82
2023/09/28 12:02:08;;;;;;;12.38;2.17;;;23.40;69.50;;;;;;4880475;29;20090;-82
2023/09/28 12:04:35;;;;;;;10.10;2.30;;;23.60;69.60;;;;;;4881477;29;20462;-83
2023/09/28 12:07:06;;;;;;;9.20;2.17;;;23.60;69.20;;;;;;4880880;29;20529;-85
2023/09/28 12:09:31;;;;;;;10.10;1.77;;;23.60;68.40;;;;;;4896644;29;20054;-84
2023/09/28 12:11:59;;;;;;;13.88;2.30;;;23.50;68.50;;;;;;4938773;29;20036;-82
2023/09/28 12:14:27;;;;;;;14.63;2.83;;;23.50;68.40;;;;;;4960945;28;20031;-82
2023/09/28 12:16:54;;;;;;;10.43;1.83;;;23.40;68.50;;;;;;4978607;28;20038;-85
2023/09/28 12:19:21;;;;;;;11.38;2.35;;;23.40;68.60;;;;;;4959749;28;20027;-83
2023/09/28 12:21:54;;;;;;;11.05;2.30;;;23.40;68.50;;;;;;4977076;28;20031;-82
2023/09/28 12:24:20;;;;;;;9.00;1.63;;;23.30;68.50;;;;;;4978111;28;20049;-82
2023/09/28 12:26:48;;;;;;;13.57;2.22;;;23.30;68.70;;;;;;4977943;28;20106;-81
2023/09/28 12:29:17;;;;;;;12.65;2.65;;;23.20;68.60;;;;;;4977745;28;20045;-82
2023/09/28 12:31:44;;;;;;;12.82;2.60;;;23.10;68.40;;;;;;4978890;28;20030;-82
2023/09/28 12:34:13;;;;;;;10.35;1.83;;;23.10;68.60;;;;;;4979527;28;20031;-84
2023/09/28 12:36:39;;;;;;;10.27;1.80;;;23.00;68.90;;;;;;4976655;28;20051;-85
2023/09/28 12:39:10;;;;;;;16.88;2.78;;;23.10;69.00;;;;;;4976459;28;20030;-82
2023/09/28 12:41:37;;;;;;;13.10;2.35;;;23.10;68.90;;;;;;4975638;28;20081;-82
2023/09/28 12:44:04;;;;;;;14.45;2.10;;;23.10;68.80;;;;;;4975356;28;20039;-80
2023/09/28 12:46:30;;;;;;;12.23;1.70;;;23.10;68.70;;;;;;4975303;28;20027;-81
2023/09/28 12:48:59;;;;;;;11.75;2.25;;;23.00;68.80;;;;;;4957458;28;20034;-81
2023/09/28 12:51:25;;;;;;;11.88;2.40;;;23.00;69.00;;;;;;4973654;28;20046;-82
2023/09/28 12:53:50;;;;;;;13.68;2.17;;;23.10;69.20;;;;;;4975061;28;20510;-81
2023/09/28 12:56:17;;;;;;;14.43;2.55;;;23.20;69.40;;;;;;4974740;28;20058;-81
2023/09/28 12:58:42;;;;;;;10.05;2.33;;;23.30;69.10;;;;;;4974765;28;20058;-84
2023/09/28 13:01:09;;;;;;;8.57;1.60;;;23.50;69.00;;;;;;4976530;28;20042;-83